createdAt,value
2022-10-31T00:01:34.495Z,12.20
2022-10-31T00:04:03.184Z,12.10
2022-10-31T00:06:32.146Z,12.10
2022-10-31T00:09:02.825Z,12.10
2022-10-31T00:11:31.680Z,12.10
2022-10-31T00:14:00.626Z,12.10
2022-10-31T00:16:31.012Z,12.10
2022-10-31T00:19:01.294Z,12.20
2022-10-31T00:21:31.504Z,12.10
2022-10-31T00:24:00.839Z,12.20
2022-10-31T00:26:29.786Z,12.10
2022-10-31T00:28:58.917Z,12.10
2022-10-31T00:31:27.407Z,12.10
2022-10-31T00:33:57.325Z,12.10
2022-10-31T00:36:25.818Z,12.00
2022-10-31T00:38:54.397Z,12.10
2022-10-31T00:41:22.944Z,12.10
2022-10-31T00:43:51.445Z,12.20
2022-10-31T00:46:19.923Z,12.20
2022-10-31T00:48:48.464Z,12.30
2022-10-31T00:51:18.307Z,12.30
2022-10-31T00:53:46.855Z,12.20
2022-10-31T00:56:15.425Z,12.30
2022-10-31T00:58:43.955Z,12.30
2022-10-31T01:01:12.497Z,12.40
2022-10-31T01:03:41.509Z,12.30
2022-10-31T01:06:12.593Z,12.30
2022-10-31T01:08:42.804Z,12.30
2022-10-31T01:11:13.918Z,12.30
2022-10-31T01:13:42.727Z,12.30
2022-10-31T01:16:13.692Z,12.30
2022-10-31T01:18:42.254Z,12.30
2022-10-31T01:21:12.474Z,12.30
2022-10-31T01:23:43.095Z,12.30
2022-10-31T01:26:13.564Z,12.40
2022-10-31T01:28:47.525Z,12.60
2022-10-31T01:31:16.918Z,12.80
2022-10-31T01:33:45.733Z,13.00
2022-10-31T01:36:17.695Z,13.20
2022-10-31T01:38:48.372Z,13.40
2022-10-31T01:41:19.714Z,13.50
2022-10-31T01:43:55.164Z,13.60
2022-10-31T01:46:27.296Z,13.60
2022-10-31T01:48:57.825Z,13.70
2022-10-31T01:51:30.584Z,13.70
2022-10-31T01:54:04.056Z,13.80
2022-10-31T01:56:33.463Z,13.80
2022-10-31T01:59:04.194Z,13.80
2022-10-31T02:01:33.249Z,13.80
2022-10-31T02:04:02.144Z,13.80
2022-10-31T02:06:38.226Z,13.80
2022-10-31T02:09:09.046Z,13.70
2022-10-31T02:11:38.985Z,13.80
2022-10-31T02:14:07.514Z,13.80
2022-10-31T02:16:36.056Z,13.80
2022-10-31T02:19:07.367Z,13.70
2022-10-31T02:21:43.395Z,13.80
2022-10-31T02:27:14.904Z,13.70
2022-10-31T02:30:05.334Z,13.70
2022-10-31T02:32:58.969Z,13.70
2022-10-31T02:35:41.775Z,13.70
2022-10-31T02:38:26.285Z,13.70
2022-10-31T02:41:03.624Z,13.70
2022-10-31T02:43:37.665Z,13.70
2022-10-31T02:46:13.955Z,13.70
2022-10-31T02:48:46.752Z,13.60
2022-10-31T02:51:15.743Z,13.60
2022-10-31T02:53:44.224Z,13.50
2022-10-31T02:56:16.137Z,13.40
2022-10-31T02:58:47.534Z,13.30
2022-10-31T03:01:45.886Z,13.20
2022-10-31T03:04:56.174Z,13.20
2022-10-31T03:07:37.743Z,13.30
2022-10-31T03:10:15.386Z,13.30
2022-10-31T03:12:52.334Z,13.30
2022-10-31T03:15:27.295Z,13.40
2022-10-31T03:18:02.968Z,13.40
2022-10-31T03:20:37.925Z,13.40
2022-10-31T03:23:10.847Z,13.40
2022-10-31T03:25:39.635Z,13.20
2022-10-31T03:28:09.653Z,13.10
2022-10-31T03:30:43.535Z,13.10
2022-10-31T03:33:15.484Z,13.10
2022-10-31T03:35:47.194Z,13.20
2022-10-31T03:38:17.946Z,13.20
2022-10-31T03:40:49.201Z,13.20
2022-10-31T03:45:51.136Z,13.20
2022-10-31T03:48:21.915Z,13.10
2022-10-31T03:50:59.826Z,13.00
2022-10-31T03:53:36.265Z,13.00
2022-10-31T03:56:12.164Z,13.10
2022-10-31T03:58:45.604Z,13.10
2022-10-31T04:01:18.472Z,13.10
2022-10-31T04:03:47.837Z,13.10
2022-10-31T04:06:19.362Z,13.10
2022-10-31T04:08:53.978Z,13.10
2022-10-31T04:11:26.357Z,13.10
2022-10-31T04:13:55.795Z,13.10
2022-10-31T04:16:25.592Z,13.00
2022-10-31T04:18:54.380Z,13.00
2022-10-31T04:21:29.506Z,13.10
2022-10-31T04:24:00.286Z,13.00
2022-10-31T04:26:28.796Z,13.10
2022-10-31T04:28:57.236Z,13.20
2022-10-31T04:31:25.745Z,13.30
2022-10-31T04:33:54.334Z,13.40
2022-10-31T04:36:23.055Z,13.40
2022-10-31T04:38:51.545Z,13.50
2022-10-31T04:41:21.526Z,13.60
2022-10-31T04:43:50.065Z,13.60
2022-10-31T04:46:18.756Z,13.70
2022-10-31T04:48:47.185Z,13.80
2022-10-31T04:51:15.735Z,13.80
2022-10-31T04:53:44.235Z,13.80
2022-10-31T04:56:12.727Z,13.80
2022-10-31T04:58:42.936Z,13.80
2022-10-31T05:01:11.768Z,13.90
2022-10-31T05:03:40.754Z,13.80
2022-10-31T05:06:09.761Z,13.90
2022-10-31T05:08:38.265Z,13.80
2022-10-31T05:11:07.515Z,13.80
2022-10-31T05:13:36.285Z,13.60
2022-10-31T05:16:06.665Z,13.40
2022-10-31T05:18:35.214Z,13.30
2022-10-31T05:21:03.865Z,13.20
2022-10-31T05:23:32.555Z,13.10
2022-10-31T05:26:01.103Z,13.00
2022-10-31T05:28:29.636Z,12.90
2022-10-31T05:30:58.196Z,12.80
2022-10-31T05:33:28.135Z,12.80
2022-10-31T05:35:56.656Z,12.80
2022-10-31T05:38:25.361Z,12.80
2022-10-31T05:41:01.012Z,12.80
2022-10-31T05:43:29.966Z,12.80
2022-10-31T05:45:59.438Z,12.80
2022-10-31T05:48:29.367Z,12.80
2022-10-31T05:50:57.903Z,12.80
2022-10-31T05:53:26.516Z,12.80
2022-10-31T05:55:55.116Z,12.70
2022-10-31T05:58:23.616Z,12.80
2022-10-31T06:00:52.105Z,12.80
2022-10-31T06:03:20.634Z,12.80
2022-10-31T06:05:54.100Z,12.80
2022-10-31T06:08:23.954Z,12.80
2022-10-31T06:10:54.205Z,12.80
2022-10-31T06:13:22.683Z,12.80
2022-10-31T06:15:51.205Z,12.80
2022-10-31T06:18:19.826Z,12.80
2022-10-31T06:20:49.716Z,12.90
2022-10-31T06:23:18.347Z,12.90
2022-10-31T06:25:51.246Z,12.90
2022-10-31T06:28:20.136Z,12.90
2022-10-31T06:30:48.758Z,12.90
2022-10-31T06:33:17.322Z,12.90
2022-10-31T06:35:49.726Z,12.90
2022-10-31T06:38:18.295Z,12.90
2022-10-31T06:40:46.765Z,12.90
2022-10-31T06:43:15.924Z,12.90
2022-10-31T06:45:44.445Z,13.00
2022-10-31T06:48:17.604Z,13.00
2022-10-31T06:50:46.656Z,13.00
2022-10-31T06:53:17.206Z,13.00
2022-10-31T06:55:45.715Z,13.10
2022-10-31T06:58:14.239Z,13.10
2022-10-31T07:00:43.082Z,13.10
2022-10-31T07:03:14.536Z,13.10
2022-10-31T07:05:43.626Z,13.10
2022-10-31T07:08:14.730Z,13.10
2022-10-31T07:10:45.605Z,13.10
2022-10-31T07:13:16.258Z,13.20
2022-10-31T07:15:46.057Z,13.20
2022-10-31T07:18:15.364Z,13.30
2022-10-31T07:20:43.924Z,13.30
2022-10-31T07:23:13.155Z,13.30
2022-10-31T07:25:43.485Z,13.40
2022-10-31T07:28:12.695Z,13.40
2022-10-31T07:30:41.839Z,13.40
2022-10-31T07:33:11.304Z,13.40
2022-10-31T07:35:39.826Z,13.50
2022-10-31T07:38:12.457Z,13.40
2022-10-31T07:40:41.473Z,13.40
2022-10-31T07:43:14.646Z,13.50
2022-10-31T07:45:43.577Z,13.50
2022-10-31T07:48:12.165Z,13.40
2022-10-31T07:50:41.140Z,13.50
2022-10-31T07:53:11.406Z,13.50
2022-10-31T07:55:40.398Z,13.50
2022-10-31T07:58:11.725Z,13.60
2022-10-31T08:00:46.170Z,13.50
2022-10-31T08:03:16.896Z,13.50
2022-10-31T08:05:46.941Z,13.50
2022-10-31T08:08:17.559Z,13.50
2022-10-31T08:10:46.107Z,13.60
2022-10-31T08:13:17.050Z,13.60
2022-10-31T08:15:50.937Z,13.70
2022-10-31T08:18:19.552Z,13.70
2022-10-31T08:20:48.053Z,13.60
2022-10-31T08:23:17.121Z,13.60
2022-10-31T08:25:48.034Z,13.70
2022-10-31T08:28:17.988Z,13.70
2022-10-31T08:30:47.018Z,13.70
2022-10-31T08:33:17.727Z,13.70
2022-10-31T08:35:47.001Z,13.80
2022-10-31T08:38:15.561Z,13.80
2022-10-31T08:40:44.229Z,13.90
2022-10-31T08:43:15.393Z,13.90
2022-10-31T08:45:46.324Z,14.00
2022-10-31T08:48:16.341Z,14.00
2022-10-31T08:50:46.561Z,14.00
2022-10-31T08:53:16.286Z,14.10
2022-10-31T08:55:45.917Z,14.20
2022-10-31T08:58:16.937Z,14.20
2022-10-31T09:00:47.885Z,14.20
2022-10-31T09:03:17.944Z,14.20
2022-10-31T09:05:46.896Z,14.20
2022-10-31T09:08:16.941Z,14.20
2022-10-31T09:10:46.684Z,14.30
2022-10-31T09:13:17.405Z,14.30
2022-10-31T09:15:48.726Z,14.30
2022-10-31T09:18:19.420Z,14.30
2022-10-31T09:20:49.193Z,14.30
2022-10-31T09:23:19.386Z,14.40
2022-10-31T09:25:50.685Z,14.40
2022-10-31T09:28:21.518Z,14.40
2022-10-31T09:30:53.051Z,14.30
2022-10-31T09:33:22.154Z,14.40
2022-10-31T09:35:51.210Z,14.40
2022-10-31T09:38:21.483Z,14.40
2022-10-31T09:40:55.385Z,14.30
2022-10-31T09:43:33.106Z,14.40
2022-10-31T09:46:09.584Z,14.50
2022-10-31T09:48:54.006Z,14.50
2022-10-31T09:51:27.034Z,14.50
2022-10-31T09:53:57.893Z,14.50
2022-10-31T09:56:28.039Z,14.50
2022-10-31T09:59:00.105Z,14.50
2022-10-31T10:01:41.987Z,14.50
2022-10-31T10:04:30.566Z,14.50
2022-10-31T10:07:00.131Z,14.50
2022-10-31T10:09:30.028Z,14.50
2022-10-31T10:12:10.731Z,14.40
2022-10-31T10:14:52.735Z,14.40
2022-10-31T10:17:34.223Z,14.40
2022-10-31T10:20:20.668Z,14.50
2022-10-31T10:22:57.126Z,14.60
2022-10-31T10:25:28.291Z,14.80
2022-10-31T10:28:10.529Z,15.00
2022-10-31T10:30:44.044Z,15.20
2022-10-31T10:33:17.536Z,15.40
2022-10-31T10:35:51.593Z,15.50
2022-10-31T10:38:27.934Z,15.60
2022-10-31T10:40:57.191Z,15.80
2022-10-31T10:43:31.914Z,15.90
2022-10-31T10:46:41.007Z,16.20
2022-10-31T10:49:19.144Z,16.30
2022-10-31T10:52:13.194Z,16.50
2022-10-31T10:55:05.536Z,16.50
2022-10-31T10:57:48.376Z,16.60
2022-10-31T11:00:22.480Z,16.70
2022-10-31T11:02:51.739Z,16.70
2022-10-31T11:05:30.846Z,16.60
2022-10-31T11:08:00.267Z,16.40
2022-10-31T11:10:28.994Z,16.50
2022-10-31T11:13:05.915Z,16.70
2022-10-31T11:15:39.256Z,16.90
2022-10-31T11:18:08.083Z,17.40
2022-10-31T11:20:39.419Z,18.10
2022-10-31T11:23:20.455Z,18.50
2022-10-31T11:25:53.666Z,18.60
2022-10-31T11:28:22.204Z,18.50
2022-10-31T11:30:53.577Z,18.30
2022-10-31T11:33:26.904Z,18.00
2022-10-31T11:35:58.447Z,17.90
2022-10-31T11:38:36.288Z,17.70
2022-10-31T11:41:14.305Z,17.60
2022-10-31T11:43:52.795Z,17.70
2022-10-31T11:46:30.062Z,17.90
2022-10-31T11:48:59.632Z,17.90
2022-10-31T11:51:34.101Z,17.70
2022-10-31T11:54:06.963Z,17.60
2022-10-31T11:56:43.350Z,17.60
2022-10-31T11:59:28.603Z,17.60
2022-10-31T12:01:59.836Z,17.60
2022-10-31T12:04:43.117Z,17.50
2022-10-31T12:07:14.476Z,17.60
2022-10-31T12:09:43.994Z,17.70
2022-10-31T12:12:24.671Z,17.70
2022-10-31T12:15:05.379Z,17.80
2022-10-31T12:17:44.186Z,17.70
2022-10-31T12:20:24.186Z,17.70
2022-10-31T12:23:05.271Z,17.70
2022-10-31T12:25:44.318Z,17.70
2022-10-31T12:28:44.879Z,17.80
2022-10-31T12:31:34.029Z,17.90
2022-10-31T12:34:29.255Z,17.80
2022-10-31T12:37:06.517Z,17.70
2022-10-31T12:39:47.005Z,17.60
2022-10-31T12:42:26.917Z,17.40
2022-10-31T12:45:10.855Z,17.30
2022-10-31T12:48:01.616Z,17.30
2022-10-31T12:50:40.717Z,17.50
2022-10-31T12:53:23.444Z,17.90
2022-10-31T12:56:04.493Z,18.00
2022-10-31T12:58:38.566Z,18.00
2022-10-31T13:01:15.369Z,17.60
2022-10-31T13:03:50.723Z,17.30
2022-10-31T13:06:23.614Z,17.10
2022-10-31T13:08:54.091Z,16.90
2022-10-31T13:11:27.667Z,16.80
2022-10-31T13:14:05.215Z,16.70
2022-10-31T13:16:39.832Z,16.60
2022-10-31T13:19:16.388Z,16.60
2022-10-31T13:21:57.194Z,16.60
2022-10-31T13:24:34.642Z,16.50
2022-10-31T13:27:14.310Z,16.40
2022-10-31T13:29:51.469Z,16.20
2022-10-31T13:32:22.676Z,16.20
2022-10-31T13:34:57.391Z,16.20
2022-10-31T13:37:33.451Z,16.20
2022-10-31T13:40:14.105Z,16.10
2022-10-31T13:42:55.460Z,16.10
2022-10-31T13:45:26.437Z,16.00
2022-10-31T13:48:00.640Z,16.10
2022-10-31T13:50:32.130Z,16.00
2022-10-31T13:53:15.144Z,16.00
2022-10-31T13:55:46.467Z,16.10
2022-10-31T13:58:30.958Z,16.20
2022-10-31T14:01:14.744Z,16.20
2022-10-31T14:06:43.898Z,16.10
2022-10-31T14:09:24.389Z,16.00
2022-10-31T14:11:54.769Z,15.90
2022-10-31T14:14:31.378Z,15.90
2022-10-31T14:17:01.400Z,15.80
2022-10-31T14:19:31.066Z,15.80
2022-10-31T14:21:59.948Z,15.80
2022-10-31T14:24:38.628Z,15.70
2022-10-31T14:27:47.596Z,15.60
2022-10-31T14:30:24.271Z,15.50
2022-10-31T14:32:56.103Z,15.50
2022-10-31T14:35:28.535Z,15.50
2022-10-31T14:38:35.340Z,15.50
2022-10-31T14:41:30.793Z,15.50
2022-10-31T14:44:31.834Z,15.40
2022-10-31T14:47:13.535Z,15.40
2022-10-31T14:50:07.364Z,15.40
2022-10-31T14:52:38.707Z,15.40
2022-10-31T14:55:14.495Z,15.40
2022-10-31T14:57:51.418Z,15.40
2022-10-31T15:00:21.710Z,15.40
2022-10-31T15:03:07.076Z,15.30
2022-10-31T15:05:43.536Z,15.30
2022-10-31T15:08:28.946Z,15.30
2022-10-31T15:10:58.321Z,15.20
2022-10-31T15:13:27.734Z,15.20
2022-10-31T15:15:58.846Z,15.10
2022-10-31T15:18:30.897Z,15.00
2022-10-31T15:21:00.397Z,14.90
2022-10-31T15:23:31.431Z,14.80
2022-10-31T15:26:05.316Z,14.60
2022-10-31T15:28:35.196Z,14.60
2022-10-31T15:31:05.225Z,14.50
2022-10-31T15:33:48.108Z,14.50
2022-10-31T15:36:23.968Z,14.40
2022-10-31T15:38:59.175Z,14.40
2022-10-31T15:41:35.367Z,14.40
2022-10-31T15:44:12.476Z,14.30
2022-10-31T15:46:41.567Z,14.30
2022-10-31T15:49:27.746Z,14.30
2022-10-31T15:52:00.256Z,14.30
2022-10-31T15:54:29.446Z,14.20
2022-10-31T15:56:58.464Z,14.20
2022-10-31T15:59:30.708Z,14.20
2022-10-31T16:02:05.585Z,14.20
2022-10-31T16:04:36.391Z,14.30
2022-10-31T16:07:20.188Z,14.30
2022-10-31T16:09:54.159Z,14.20
2022-10-31T16:12:25.475Z,14.20
2022-10-31T16:14:57.052Z,14.20
2022-10-31T16:17:29.235Z,14.10
2022-10-31T16:20:02.651Z,14.10
2022-10-31T16:22:33.977Z,14.10
2022-10-31T16:25:07.308Z,14.00
2022-10-31T16:27:39.736Z,14.00
2022-10-31T16:30:30.971Z,13.90
2022-10-31T16:33:02.825Z,13.80
2022-10-31T16:35:36.725Z,13.80
2022-10-31T16:38:06.213Z,13.80
2022-10-31T16:40:37.267Z,13.70
2022-10-31T16:43:06.308Z,13.60
2022-10-31T16:45:36.456Z,13.60
2022-10-31T16:48:07.611Z,13.60
2022-10-31T16:50:37.867Z,13.60
2022-10-31T16:53:13.721Z,13.50
2022-10-31T16:55:47.918Z,13.50
2022-10-31T16:58:25.840Z,13.40
2022-10-31T17:00:57.040Z,13.40
2022-10-31T17:03:26.555Z,13.30
2022-10-31T17:05:57.049Z,13.30
2022-10-31T17:08:26.679Z,13.30
2022-10-31T17:10:57.786Z,13.30
2022-10-31T17:13:30.365Z,13.30
2022-10-31T17:16:01.838Z,13.20
2022-10-31T17:18:32.010Z,13.20
2022-10-31T17:21:04.659Z,13.20
2022-10-31T17:23:33.774Z,13.10
2022-10-31T17:26:03.218Z,13.10
2022-10-31T17:28:32.161Z,13.20
2022-10-31T17:31:01.978Z,13.20
2022-10-31T17:33:31.074Z,13.20
2022-10-31T17:36:03.745Z,13.20
2022-10-31T17:38:32.956Z,13.20
2022-10-31T17:41:10.026Z,13.20
2022-10-31T17:43:41.069Z,13.20
2022-10-31T17:46:10.342Z,13.10
2022-10-31T17:48:39.424Z,13.10
2022-10-31T17:51:09.595Z,13.10
2022-10-31T17:53:40.071Z,13.00
2022-10-31T17:56:11.674Z,13.00
2022-10-31T17:58:41.044Z,13.00
2022-10-31T18:01:13.076Z,12.90
2022-10-31T18:03:42.881Z,13.00
2022-10-31T18:06:16.988Z,13.00
2022-10-31T18:08:46.316Z,13.00
2022-10-31T18:11:17.805Z,13.00
2022-10-31T18:13:47.112Z,13.00
2022-10-31T18:16:17.899Z,13.00
2022-10-31T18:18:48.518Z,13.00
2022-10-31T18:21:19.054Z,13.00
2022-10-31T18:23:48.088Z,12.90
2022-10-31T18:26:17.202Z,12.90
2022-10-31T18:28:46.378Z,12.90
2022-10-31T18:31:15.574Z,12.90
2022-10-31T18:33:44.542Z,13.00
2022-10-31T18:36:14.291Z,13.00
2022-10-31T18:38:46.325Z,12.90
2022-10-31T18:41:16.706Z,12.90
2022-10-31T18:43:45.712Z,12.80
2022-10-31T18:46:17.276Z,12.80
2022-10-31T18:48:47.086Z,12.80
2022-10-31T18:51:19.767Z,12.80
2022-10-31T18:53:54.736Z,12.70
2022-10-31T18:56:24.779Z,12.80
2022-10-31T18:58:54.208Z,12.80
2022-10-31T19:01:24.234Z,12.80
2022-10-31T19:03:57.855Z,12.80
2022-10-31T19:06:27.676Z,12.80
2022-10-31T19:09:03.883Z,12.80
2022-10-31T19:11:34.934Z,12.90
2022-10-31T19:14:04.525Z,12.90
2022-10-31T19:16:33.578Z,12.90
2022-10-31T19:19:03.340Z,12.90
2022-10-31T19:21:32.954Z,12.90
2022-10-31T19:24:04.149Z,13.00
2022-10-31T19:26:35.723Z,13.00
2022-10-31T19:29:05.422Z,13.10
2022-10-31T19:31:34.746Z,13.10
2022-10-31T19:34:03.544Z,13.10
2022-10-31T19:36:32.665Z,13.10
2022-10-31T19:39:03.262Z,13.10
2022-10-31T19:41:32.856Z,13.10
2022-10-31T19:44:02.297Z,13.10
2022-10-31T19:46:52.498Z,13.10
2022-10-31T19:49:20.805Z,13.10
2022-10-31T19:51:50.042Z,13.10
2022-10-31T19:54:20.758Z,13.00
2022-10-31T19:56:49.586Z,13.00
2022-10-31T19:59:18.967Z,13.00
2022-10-31T20:01:48.190Z,13.00
2022-10-31T20:04:17.351Z,13.00
2022-10-31T20:06:46.713Z,13.10
2022-10-31T20:09:16.906Z,13.10
2022-10-31T20:11:48.557Z,13.10
2022-10-31T20:14:19.533Z,13.10
2022-10-31T20:16:48.735Z,13.10
2022-10-31T20:19:17.625Z,13.10
2022-10-31T20:21:46.465Z,13.10
2022-10-31T20:24:15.408Z,13.10
2022-10-31T20:26:44.335Z,13.10
2022-10-31T20:29:17.107Z,13.10
2022-10-31T20:31:47.311Z,13.10
2022-10-31T20:34:17.277Z,13.10
2022-10-31T20:36:46.256Z,13.10
2022-10-31T20:39:15.938Z,13.10
2022-10-31T20:41:44.616Z,13.10
2022-10-31T20:44:15.328Z,13.10
2022-10-31T20:46:44.200Z,13.00
2022-10-31T20:49:13.395Z,13.10
2022-10-31T20:51:42.146Z,13.00
2022-10-31T20:54:14.737Z,13.00
2022-10-31T20:56:43.934Z,13.00
2022-10-31T20:59:18.186Z,12.90
2022-10-31T21:01:48.941Z,12.90
2022-10-31T21:04:18.113Z,12.80
2022-10-31T21:06:49.620Z,12.80
2022-10-31T21:09:19.737Z,12.80
2022-10-31T21:11:48.946Z,12.80
2022-10-31T21:14:17.686Z,12.80
2022-10-31T21:16:48.397Z,12.80
2022-10-31T21:19:18.782Z,12.80
2022-10-31T21:21:47.946Z,12.80
2022-10-31T21:26:50.316Z,12.80
2022-10-31T21:29:20.356Z,12.80
2022-10-31T21:31:50.827Z,12.80
2022-10-31T21:34:19.901Z,12.80
2022-10-31T21:36:48.915Z,12.80
2022-10-31T21:39:18.356Z,12.90
2022-10-31T21:41:46.825Z,12.80
2022-10-31T21:44:15.262Z,12.90
2022-10-31T21:46:45.155Z,12.90
2022-10-31T21:49:15.475Z,12.90
2022-10-31T21:51:44.258Z,13.00
2022-10-31T21:54:30.274Z,13.00
2022-10-31T21:56:59.978Z,13.00
2022-10-31T21:59:28.806Z,13.00
2022-10-31T22:02:00.780Z,13.00
2022-10-31T22:04:31.166Z,13.00
2022-10-31T22:06:59.645Z,13.00
2022-10-31T22:09:28.157Z,13.00
2022-10-31T22:11:56.646Z,13.10
2022-10-31T22:14:25.145Z,13.10
2022-10-31T22:16:53.657Z,13.10
2022-10-31T22:19:22.186Z,13.10
2022-10-31T22:21:52.066Z,13.10
2022-10-31T22:24:20.766Z,13.10
2022-10-31T22:26:49.246Z,13.10
2022-10-31T22:29:19.371Z,13.10
2022-10-31T22:31:53.413Z,13.20
2022-10-31T22:34:25.915Z,13.10
2022-10-31T22:36:56.504Z,13.10
2022-10-31T22:39:25.066Z,13.10
2022-10-31T22:41:53.555Z,13.20
2022-10-31T22:44:22.082Z,13.20
2022-10-31T22:46:50.615Z,13.20
2022-10-31T22:49:19.296Z,13.20
2022-10-31T22:51:47.717Z,13.20
2022-10-31T22:54:19.385Z,13.20
2022-10-31T22:56:47.995Z,13.10
2022-10-31T22:59:17.798Z,13.10
2022-10-31T23:01:46.902Z,13.10
2022-10-31T23:04:18.738Z,13.00
2022-10-31T23:06:49.215Z,13.00
2022-10-31T23:09:19.343Z,13.00
2022-10-31T23:11:47.909Z,12.90
2022-10-31T23:14:21.066Z,12.90
2022-10-31T23:16:52.132Z,12.90
2022-10-31T23:19:22.854Z,12.80
2022-10-31T23:21:59.808Z,12.90
2022-10-31T23:24:34.635Z,12.90
2022-10-31T23:27:10.185Z,12.90
2022-10-31T23:29:46.425Z,13.00
2022-10-31T23:32:21.956Z,13.00
2022-10-31T23:34:52.306Z,13.00
2022-10-31T23:37:22.540Z,13.00
2022-10-31T23:39:52.605Z,13.10
2022-10-31T23:42:21.367Z,13.10
2022-10-31T23:44:50.357Z,13.10
2022-10-31T23:47:19.756Z,13.10
2022-10-31T23:49:48.297Z,13.20
2022-10-31T23:52:17.423Z,13.20
2022-10-31T23:54:46.066Z,13.20
2022-10-31T23:57:17.167Z,13.20
2022-10-31T23:59:46.665Z,13.20
